Time,TemperatureF,DewpointF,PressureIn,WindDirection,WindDirectionDegrees,WindSpeedMPH,WindSpeedGustMPH,Humidity,HourlyPrecipIn,Conditions,Clouds,dailyrainin,SoftwareType,DateUTC
2013-09-13 00:00:00,68.3,67.7,29.62,NNE,19,0.0,0.0,98,0.00,,,0.80,Wunderground v.1.15,2013-09-13 04:00:00,
2013-09-13 00:05:00,68.4,67.8,29.62,NNE,19,0.0,0.0,98,0.00,,,0.00,Wunderground v.1.15,2013-09-13 04:05:00,
2013-09-13 00:10:00,68.4,67.8,29.62,NNE,19,0.0,0.0,98,0.00,,,0.00,Wunderground v.1.15,2013-09-13 04:10:00,
2013-09-13 00:15:00,68.6,68.0,29.62,NNE,19,0.0,0.0,98,0.00,,,0.00,Wunderground v.1.15,2013-09-13 04:15:00,
2013-09-13 00:20:00,68.6,68.0,29.63,NNE,19,0.0,0.0,98,0.00,,,0.00,Wunderground v.1.15,2013-09-13 04:20:00,
2013-09-13 00:30:00,68.8,68.2,29.63,NNE,19,0.0,0.0,98,0.00,,,0.00,Wunderground v.1.15,2013-09-13 04:30:00,
2013-09-13 00:35:00,68.6,68.0,29.63,NNE,19,0.0,0.0,98,0.00,,,0.00,Wunderground v.1.15,2013-09-13 04:35:00,
2013-09-13 00:40:00,68.6,68.0,29.63,NNE,19,0.0,0.0,98,0.00,,,0.00,Wunderground v.1.15,2013-09-13 04:40:00,
2013-09-13 00:50:00,68.6,68.0,29.63,NNE,19,0.0,0.0,98,0.00,,,0.00,Wunderground v.1.15,2013-09-13 04:50:00,
2013-09-13 00:55:00,68.6,68.0,29.63,NNE,19,0.0,0.0,98,0.00,,,0.00,Wunderground v.1.15,2013-09-13 04:55:00,
2013-09-13 01:00:00,68.6,68.0,29.63,NNE,19,0.0,0.0,98,0.34,,,0.01,Wunderground v.1.15,2013-09-13 05:00:00,
2013-09-13 01:05:00,68.6,68.0,29.62,NNE,19,0.0,0.0,98,0.12,,,0.02,Wunderground v.1.15,2013-09-13 05:05:00,
2013-09-13 01:15:00,68.6,68.0,29.62,NNE,19,0.0,0.0,98,0.04,,,0.02,Wunderground v.1.15,2013-09-13 05:15:00,
2013-09-13 01:25:00,68.8,68.2,29.61,NNE,19,0.0,0.0,98,0.00,,,0.02,Wunderground v.1.15,2013-09-13 05:25:00,
2013-09-13 01:30:00,68.8,68.2,29.61,NNE,19,0.0,0.0,98,0.00,,,0.02,Wunderground v.1.15,2013-09-13 05:30:00,
2013-09-13 01:35:00,68.8,68.2,29.61,NNE,19,0.0,0.0,98,0.00,,,0.02,Wunderground v.1.15,2013-09-13 05:35:00,
2013-09-13 01:45:00,68.8,68.2,29.61,NNE,19,0.0,0.0,98,0.00,,,0.02,Wunderground v.1.15,2013-09-13 05:45:00,
2013-09-13 01:55:00,68.8,68.5,29.60,NNE,19,0.0,0.0,99,0.00,,,0.02,Wunderground v.1.15,2013-09-13 05:55:00,
2013-09-13 02:05:00,68.8,68.5,29.59,NNE,19,0.0,0.0,99,0.00,,,0.02,Wunderground v.1.15,2013-09-13 06:05:00,
2013-09-13 02:15:00,69.1,68.8,29.59,NNE,19,0.0,0.0,99,0.00,,,0.02,Wunderground v.1.15,2013-09-13 06:15:00,
2013-09-13 02:20:00,69.1,68.8,29.58,NNE,19,0.0,0.0,99,0.00,,,0.02,Wunderground v.1.15,2013-09-13 06:20:00,
2013-09-13 02:25:00,69.1,68.8,29.58,NNE,19,0.0,0.0,99,0.00,,,0.02,Wunderground v.1.15,2013-09-13 06:25:00,
2013-09-13 02:35:00,69.1,68.8,29.57,NNE,19,0.0,0.0,99,0.00,,,0.02,Wunderground v.1.15,2013-09-13 06:35:00,
2013-09-13 02:45:00,69.1,68.8,29.57,NNE,19,0.0,0.0,99,0.00,,,0.02,Wunderground v.1.15,2013-09-13 06:45:00,
2013-09-13 02:55:00,69.1,68.8,29.57,NNE,19,0.0,0.0,99,0.00,,,0.02,Wunderground v.1.15,2013-09-13 06:55:00,
2013-09-13 03:00:00,69.1,68.8,29.57,NNE,19,0.0,0.0,99,0.00,,,0.02,Wunderground v.1.15,2013-09-13 07:00:00,
2013-09-13 03:05:00,68.9,68.6,29.57,NNE,19,0.0,0.0,99,0.00,,,0.02,Wunderground v.1.15,2013-09-13 07:05:00,
2013-09-13 03:15:00,68.8,68.5,29.57,NNE,19,0.0,0.0,99,0.00,,,0.02,Wunderground v.1.15,2013-09-13 07:15:00,
2013-09-13 03:30:00,68.8,68.5,29.56,NNE,19,0.0,0.0,99,0.00,,,0.02,Wunderground v.1.15,2013-09-13 07:30:00,
2013-09-13 03:40:00,68.8,68.5,29.56,NNE,19,0.0,0.0,99,0.00,,,0.02,Wunderground v.1.15,2013-09-13 07:40:00,
2013-09-13 03:50:00,68.6,68.3,29.56,NNE,19,0.0,0.0,99,0.00,,,0.02,Wunderground v.1.15,2013-09-13 07:50:00,
2013-09-13 03:55:00,68.4,68.1,29.56,NNE,19,0.0,0.0,99,0.00,,,0.02,Wunderground v.1.15,2013-09-13 07:55:00,
2013-09-13 04:00:00,68.4,68.1,29.56,NNE,19,0.0,0.0,99,0.00,,,0.02,Wunderground v.1.15,2013-09-13 08:00:00,
2013-09-13 04:10:00,68.3,68.0,29.56,NNE,19,0.0,0.0,99,0.00,,,0.02,Wunderground v.1.15,2013-09-13 08:10:00,
2013-09-13 04:15:00,68.3,68.0,29.56,NNE,19,0.0,0.0,99,0.00,,,0.02,Wunderground v.1.15,2013-09-13 08:15:00,
2013-09-13 04:20:00,68.3,68.0,29.56,NNE,19,0.0,0.0,99,0.00,,,0.02,Wunderground v.1.15,2013-09-13 08:20:00,
2013-09-13 04:25:00,68.3,68.0,29.56,NNE,19,0.0,0.0,99,0.00,,,0.02,Wunderground v.1.15,2013-09-13 08:25:00,
2013-09-13 04:35:00,68.3,68.0,29.57,NNE,19,0.0,0.0,99,0.00,,,0.02,Wunderground v.1.15,2013-09-13 08:35:00,
2013-09-13 04:45:00,68.3,68.0,29.57,NNE,19,0.0,0.0,99,0.00,,,0.02,Wunderground v.1.15,2013-09-13 08:45:00,
2013-09-13 04:55:00,68.3,68.0,29.56,NNE,19,0.0,0.0,99,0.00,,,0.02,Wunderground v.1.15,2013-09-13 08:55:00,
2013-09-13 05:00:00,68.3,68.0,29.56,NNE,19,0.0,0.0,99,0.00,,,0.02,Wunderground v.1.15,2013-09-13 09:00:00,
2013-09-13 05:05:00,68.3,68.0,29.57,NNE,19,0.0,0.0,99,0.00,,,0.02,Wunderground v.1.15,2013-09-13 09:05:00,
2013-09-13 05:10:00,68.3,68.0,29.57,NNE,19,0.0,0.0,99,0.00,,,0.02,Wunderground v.1.15,2013-09-13 09:10:00,
2013-09-13 05:15:00,68.3,68.0,29.57,NNE,19,0.0,0.0,99,0.00,,,0.02,Wunderground v.1.15,2013-09-13 09:15:00,
2013-09-13 05:20:00,68.3,68.0,29.57,NNE,19,0.0,0.0,99,0.00,,,0.02,Wunderground v.1.15,2013-09-13 09:20:00,
2013-09-13 05:25:00,68.3,68.0,29.57,NNE,19,0.0,0.0,99,0.00,,,0.02,Wunderground v.1.15,2013-09-13 09:25:00,
2013-09-13 05:35:00,68.1,67.8,29.58,NNE,19,0.0,0.0,99,0.00,,,0.03,Wunderground v.1.15,2013-09-13 09:35:00,
2013-09-13 05:40:00,67.9,67.6,29.58,NNE,19,0.0,0.0,99,0.00,,,0.03,Wunderground v.1.15,2013-09-13 09:40:00,
2013-09-13 05:45:00,67.9,67.6,29.58,NNE,19,0.0,0.0,99,0.00,,,0.03,Wunderground v.1.15,2013-09-13 09:45:00,
2013-09-13 05:50:00,67.9,67.6,29.57,NNE,19,0.0,0.0,99,0.00,,,0.03,Wunderground v.1.15,2013-09-13 09:50:00,
2013-09-13 06:00:00,67.8,67.5,29.57,NNE,19,0.0,0.0,99,0.00,,,0.03,Wunderground v.1.15,2013-09-13 10:00:00,
2013-09-13 06:05:00,67.8,67.5,29.57,NNE,19,0.0,0.0,99,0.00,,,0.03,Wunderground v.1.15,2013-09-13 10:05:00,
2013-09-13 06:10:00,67.8,67.5,29.57,NNE,19,0.0,0.0,99,0.00,,,0.03,Wunderground v.1.15,2013-09-13 10:10:00,
2013-09-13 06:15:00,67.6,67.3,29.57,NNE,19,0.0,0.0,99,0.00,,,0.03,Wunderground v.1.15,2013-09-13 10:15:00,
2013-09-13 06:25:00,67.4,67.1,29.57,NNE,19,0.0,0.0,99,0.00,,,0.03,Wunderground v.1.15,2013-09-13 10:25:00,
2013-09-13 06:30:00,67.3,67.0,29.57,NNE,19,0.0,0.0,99,0.00,,,0.04,Wunderground v.1.15,2013-09-13 10:30:00,
2013-09-13 06:35:00,67.3,67.0,29.56,NNE,19,0.0,0.0,99,0.00,,,0.04,Wunderground v.1.15,2013-09-13 10:35:00,
2013-09-13 06:45:00,67.3,67.0,29.56,NNE,19,0.0,0.0,99,0.00,,,0.04,Wunderground v.1.15,2013-09-13 10:45:00,
2013-09-13 06:50:00,67.4,67.1,29.58,NNE,19,0.0,0.0,99,0.00,,,0.04,Wunderground v.1.15,2013-09-13 10:50:00,
2013-09-13 07:00:00,67.4,67.1,29.58,NNE,19,0.0,0.0,99,0.00,,,0.04,Wunderground v.1.15,2013-09-13 11:00:00,
2013-09-13 07:10:00,67.3,67.0,29.59,NNE,19,0.0,0.0,99,0.00,,,0.04,Wunderground v.1.15,2013-09-13 11:10:00,
2013-09-13 07:15:00,67.1,66.8,29.59,NNE,19,0.0,0.0,99,0.00,,,0.04,Wunderground v.1.15,2013-09-13 11:15:00,
2013-09-13 07:20:00,67.3,67.0,29.59,NNE,19,0.0,0.0,99,0.00,,,0.04,Wunderground v.1.15,2013-09-13 11:20:00,
2013-09-13 07:25:00,67.3,67.0,29.59,NNE,19,0.0,0.0,99,0.00,,,0.04,Wunderground v.1.15,2013-09-13 11:25:00,
2013-09-13 07:30:00,67.3,67.0,29.59,NNE,19,0.0,0.0,99,0.00,,,0.04,Wunderground v.1.15,2013-09-13 11:30:00,
2013-09-13 07:40:00,67.3,67.0,29.59,NNE,19,0.0,0.0,99,0.00,,,0.04,Wunderground v.1.15,2013-09-13 11:40:00,
2013-09-13 07:50:00,67.3,67.0,29.59,NNE,19,0.0,0.0,99,0.00,,,0.04,Wunderground v.1.15,2013-09-13 11:50:00,
2013-09-13 07:55:00,67.3,67.0,29.59,NNE,19,0.0,0.0,99,0.00,,,0.04,Wunderground v.1.15,2013-09-13 11:55:00,
2013-09-13 08:05:00,67.4,67.1,29.59,NNE,19,0.0,0.0,99,0.00,,,0.04,Wunderground v.1.15,2013-09-13 12:05:00,
2013-09-13 08:10:00,67.6,67.3,29.59,NNE,19,0.0,0.0,99,0.00,,,0.04,Wunderground v.1.15,2013-09-13 12:10:00,
2013-09-13 08:20:00,68.4,68.4,29.59,NNE,19,0.0,0.0,100,0.00,,,0.04,Wunderground v.1.15,2013-09-13 12:20:00,
2013-09-13 08:30:00,68.6,68.3,29.59,NNE,19,0.0,0.0,99,0.00,,,0.04,Wunderground v.1.15,2013-09-13 12:30:00,
2013-09-13 08:35:00,69.4,69.4,29.58,NNE,19,0.0,0.0,100,0.00,,,0.04,Wunderground v.1.15,2013-09-13 12:35:00,
2013-09-13 08:40:00,69.8,69.5,29.58,NNE,19,0.0,0.0,99,0.00,,,0.04,Wunderground v.1.15,2013-09-13 12:40:00,
2013-09-13 08:45:00,69.3,68.7,29.58,NNE,19,0.0,0.0,98,0.00,,,0.04,Wunderground v.1.15,2013-09-13 12:45:00,
2013-09-13 08:50:00,69.4,69.1,29.59,NE,40,0.0,0.0,99,0.00,,,0.04,Wunderground v.1.15,2013-09-13 12:50:00,
2013-09-13 09:00:00,68.9,68.0,29.59,NE,41,0.0,0.0,97,0.00,,,0.04,Wunderground v.1.15,2013-09-13 13:00:00,
2013-09-13 09:10:00,69.6,68.1,29.59,NE,37,0.0,0.0,95,0.00,,,0.04,Wunderground v.1.15,2013-09-13 13:10:00,
2013-09-13 09:20:00,69.6,66.2,29.59,North,5,0.0,0.0,89,0.00,,,0.04,Wunderground v.1.15,2013-09-13 13:20:00,
2013-09-13 09:25:00,69.9,65.9,29.59,North,5,0.0,0.0,87,0.00,,,0.04,Wunderground v.1.15,2013-09-13 13:25:00,
2013-09-13 09:30:00,70.4,65.7,29.59,NW,311,0.0,0.0,85,0.00,,,0.04,Wunderground v.1.15,2013-09-13 13:30:00,
2013-09-13 09:35:00,71.1,65.0,29.59,North,5,0.0,0.0,81,0.00,,,0.04,Wunderground v.1.15,2013-09-13 13:35:00,
2013-09-13 09:40:00,71.8,64.9,29.59,NNE,15,0.0,0.0,79,0.00,,,0.04,Wunderground v.1.15,2013-09-13 13:40:00,
2013-09-13 09:45:00,72.3,64.3,29.59,North,11,0.0,1.0,76,0.00,,,0.04,Wunderground v.1.15,2013-09-13 13:45:00,
2013-09-13 09:55:00,72.3,63.9,29.59,NNW,340,0.0,0.0,75,0.00,,,0.04,Wunderground v.1.15,2013-09-13 13:55:00,
2013-09-13 10:00:00,72.5,63.4,29.59,North,355,0.0,0.0,73,0.00,,,0.04,Wunderground v.1.15,2013-09-13 14:00:00,
2013-09-13 10:10:00,73.3,63.7,29.59,NNW,329,0.0,0.0,72,0.00,,,0.04,Wunderground v.1.15,2013-09-13 14:10:00,
2013-09-13 10:15:00,73.9,64.3,29.59,NNW,346,0.0,4.0,72,0.00,,,0.04,Wunderground v.1.15,2013-09-13 14:15:00,
2013-09-13 10:25:00,73.5,62.7,29.58,North,360,1.0,2.0,69,0.00,,,0.04,Wunderground v.1.15,2013-09-13 14:25:00,
2013-09-13 10:30:00,73.5,63.1,29.58,North,360,1.0,1.0,70,0.00,,,0.04,Wunderground v.1.15,2013-09-13 14:30:00,
2013-09-13 10:35:00,73.9,63.5,29.58,NNE,14,0.0,1.0,70,0.00,,,0.04,Wunderground v.1.15,2013-09-13 14:35:00,
2013-09-13 10:45:00,74.6,62.9,29.58,North,350,1.0,3.0,67,0.00,,,0.04,Wunderground v.1.15,2013-09-13 14:45:00,
2013-09-13 10:55:00,73.9,62.2,29.58,NNW,338,1.0,1.0,67,0.00,,,0.04,Wunderground v.1.15,2013-09-13 14:55:00,
2013-09-13 11:05:00,74.0,61.5,29.57,NNW,343,0.0,0.0,65,0.00,,,0.04,Wunderground v.1.15,2013-09-13 15:05:00,
2013-09-13 11:15:00,74.7,63.0,29.57,WNW,296,1.0,1.0,67,0.00,,,0.04,Wunderground v.1.15,2013-09-13 15:15:00,
2013-09-13 11:20:00,74.7,62.6,29.57,NNE,15,1.0,1.0,66,0.00,,,0.04,Wunderground v.1.15,2013-09-13 15:20:00,
2013-09-13 11:25:00,74.6,62.9,29.57,NNW,332,1.0,1.0,67,0.00,,,0.04,Wunderground v.1.15,2013-09-13 15:25:00,
2013-09-13 11:30:00,74.7,62.1,29.57,North,9,1.0,1.0,65,0.00,,,0.04,Wunderground v.1.15,2013-09-13 15:30:00,
2013-09-13 11:35:00,75.1,62.1,29.57,NNE,25,1.0,1.0,64,0.00,,,0.04,Wunderground v.1.15,2013-09-13 15:35:00,
2013-09-13 11:40:00,75.1,61.2,29.57,NNE,13,1.0,1.0,62,0.00,,,0.04,Wunderground v.1.15,2013-09-13 15:40:00,
2013-09-13 11:45:00,75.4,62.4,29.57,NNW,348,1.0,1.0,64,0.00,,,0.04,Wunderground v.1.15,2013-09-13 15:45:00,
2013-09-13 11:55:00,75.8,61.8,29.57,WNW,301,1.0,2.0,62,0.00,,,0.04,Wunderground v.1.15,2013-09-13 15:55:00,
2013-09-13 12:00:00,76.1,61.7,29.57,NE,35,1.0,2.0,61,0.00,,,0.04,Wunderground v.1.15,2013-09-13 16:00:00,
2013-09-13 12:05:00,76.5,62.0,29.57,NNE,24,1.0,2.0,61,0.00,,,0.04,Wunderground v.1.15,2013-09-13 16:05:00,
2013-09-13 12:10:00,76.8,61.4,29.57,NW,309,1.0,1.0,59,0.00,,,0.04,Wunderground v.1.15,2013-09-13 16:10:00,
2013-09-13 12:15:00,77.0,61.1,29.57,WSW,238,0.0,1.0,58,0.00,,,0.04,Wunderground v.1.15,2013-09-13 16:15:00,
2013-09-13 12:25:00,77.7,61.7,29.57,North,360,1.0,1.0,58,0.00,,,0.04,Wunderground v.1.15,2013-09-13 16:25:00,
2013-09-13 12:30:00,77.9,61.9,29.57,North,360,1.0,1.0,58,0.00,,,0.04,Wunderground v.1.15,2013-09-13 16:30:00,
2013-09-13 12:40:00,77.4,62.4,29.57,West,263,0.0,3.0,60,0.00,,,0.04,Wunderground v.1.15,2013-09-13 16:40:00,
2013-09-13 12:45:00,76.3,61.9,29.57,NW,313,0.0,3.0,61,0.00,,,0.04,Wunderground v.1.15,2013-09-13 16:45:00,
2013-09-13 12:50:00,76.0,62.0,29.57,North,360,1.0,3.0,62,0.00,,,0.04,Wunderground v.1.15,2013-09-13 16:50:00,
2013-09-13 12:55:00,75.8,62.8,29.57,NNE,26,1.0,3.0,64,0.00,,,0.04,Wunderground v.1.15,2013-09-13 16:55:00,
2013-09-13 13:00:00,76.0,61.6,29.57,NNE,21,0.0,2.0,61,0.00,,,0.04,Wunderground v.1.15,2013-09-13 17:00:00,
2013-09-13 13:10:00,76.1,62.1,29.57,NNW,346,0.0,4.0,62,0.00,,,0.04,Wunderground v.1.15,2013-09-13 17:10:00,
2013-09-13 13:15:00,75.6,61.7,29.57,NW,326,1.0,4.0,62,0.00,,,0.04,Wunderground v.1.15,2013-09-13 17:15:00,
2013-09-13 13:20:00,75.1,61.6,29.57,North,5,1.0,1.0,63,0.00,,,0.04,Wunderground v.1.15,2013-09-13 17:20:00,
2013-09-13 13:25:00,74.9,61.9,29.57,North,355,1.0,1.0,64,0.00,,,0.04,Wunderground v.1.15,2013-09-13 17:25:00,
2013-09-13 13:35:00,75.1,62.1,29.56,North,355,0.0,0.0,64,0.00,,,0.04,Wunderground v.1.15,2013-09-13 17:35:00,
2013-09-13 13:45:00,74.9,61.9,29.56,North,355,0.0,0.0,64,0.00,,,0.04,Wunderground v.1.15,2013-09-13 17:45:00,
2013-09-13 13:50:00,74.7,60.8,29.56,North,350,0.0,0.0,62,0.00,,,0.04,Wunderground v.1.15,2013-09-13 17:50:00,
2013-09-13 14:00:00,74.4,61.4,29.56,NNE,18,0.0,0.0,64,0.00,,,0.04,Wunderground v.1.15,2013-09-13 18:00:00,
2013-09-13 14:05:00,74.2,61.7,29.56,NNE,18,1.0,1.0,65,0.00,,,0.04,Wunderground v.1.15,2013-09-13 18:05:00,
2013-09-13 14:15:00,74.2,61.2,29.56,NNW,331,0.0,0.0,64,0.00,,,0.04,Wunderground v.1.15,2013-09-13 18:15:00,
2013-09-13 14:20:00,74.2,61.7,29.56,NNW,331,0.0,0.0,65,0.00,,,0.04,Wunderground v.1.15,2013-09-13 18:20:00,
2013-09-13 14:30:00,74.2,61.2,29.56,North,5,0.0,0.0,64,0.00,,,0.04,Wunderground v.1.15,2013-09-13 18:30:00,
2013-09-13 14:35:00,74.0,61.5,29.55,North,5,0.0,0.0,65,0.00,,,0.04,Wunderground v.1.15,2013-09-13 18:35:00,
2013-09-13 14:40:00,74.0,61.9,29.55,North,5,0.0,0.0,66,0.00,,,0.04,Wunderground v.1.15,2013-09-13 18:40:00,
2013-09-13 14:50:00,73.7,61.6,29.56,North,355,0.0,0.0,66,0.00,,,0.04,Wunderground v.1.15,2013-09-13 18:50:00,
2013-09-13 15:00:00,73.2,60.7,29.56,WNW,284,1.0,1.0,65,0.00,,,0.04,Wunderground v.1.15,2013-09-13 19:00:00,
2013-09-13 15:10:00,73.2,61.2,29.57,NW,322,0.0,0.0,66,0.00,,,0.04,Wunderground v.1.15,2013-09-13 19:10:00,
2013-09-13 15:20:00,73.2,59.8,29.57,NNW,346,1.0,3.0,63,0.00,,,0.04,Wunderground v.1.15,2013-09-13 19:20:00,
2013-09-13 15:30:00,73.7,60.3,29.57,NNW,348,1.0,1.0,63,0.00,,,0.04,Wunderground v.1.15,2013-09-13 19:30:00,
2013-09-13 15:35:00,74.2,60.8,29.57,NNW,332,1.0,1.0,63,0.00,,,0.04,Wunderground v.1.15,2013-09-13 19:35:00,
2013-09-13 15:45:00,75.1,60.3,29.57,North,355,1.0,5.0,60,0.00,,,0.04,Wunderground v.1.15,2013-09-13 19:45:00,
2013-09-13 15:50:00,75.1,59.3,29.57,North,350,2.0,3.0,58,0.00,,,0.04,Wunderground v.1.15,2013-09-13 19:50:00,
2013-09-13 15:55:00,75.3,59.5,29.57,North,360,2.0,3.0,58,0.00,,,0.04,Wunderground v.1.15,2013-09-13 19:55:00,
2013-09-13 16:00:00,75.4,59.1,29.57,NW,305,1.0,1.0,57,0.00,,,0.04,Wunderground v.1.15,2013-09-13 20:00:00,
2013-09-13 16:05:00,75.4,59.1,29.57,NNW,348,1.0,1.0,57,0.00,,,0.04,Wunderground v.1.15,2013-09-13 20:05:00,
2013-09-13 16:10:00,75.3,58.5,29.57,NNE,31,1.0,3.0,56,0.00,,,0.04,Wunderground v.1.15,2013-09-13 20:10:00,
2013-09-13 16:15:00,75.1,58.3,29.57,NNW,328,1.0,5.0,56,0.00,,,0.04,Wunderground v.1.15,2013-09-13 20:15:00,
2013-09-13 16:25:00,74.6,58.4,29.58,NNW,329,1.0,1.0,57,0.00,,,0.04,Wunderground v.1.15,2013-09-13 20:25:00,
2013-09-13 16:30:00,74.9,58.6,29.58,West,265,1.0,1.0,57,0.00,,,0.04,Wunderground v.1.15,2013-09-13 20:30:00,
2013-09-13 16:40:00,74.9,58.6,29.58,NNW,337,1.0,1.0,57,0.00,,,0.04,Wunderground v.1.15,2013-09-13 20:40:00,
2013-09-13 16:45:00,74.9,58.6,29.58,NNE,13,1.0,1.0,57,0.00,,,0.04,Wunderground v.1.15,2013-09-13 20:45:00,
2013-09-13 16:55:00,74.0,58.3,29.59,North,360,2.0,2.0,58,0.00,,,0.04,Wunderground v.1.15,2013-09-13 20:55:00,
2013-09-13 17:00:00,73.7,58.5,29.59,NNW,331,1.0,1.0,59,0.00,,,0.04,Wunderground v.1.15,2013-09-13 21:00:00,
2013-09-13 17:05:00,73.7,58.9,29.59,NNW,348,1.0,2.0,60,0.00,,,0.04,Wunderground v.1.15,2013-09-13 21:05:00,
2013-09-13 17:15:00,73.0,56.9,29.59,NW,323,1.0,6.0,57,0.00,,,0.04,Wunderground v.1.15,2013-09-13 21:15:00,
2013-09-13 17:25:00,71.6,57.0,29.60,NW,308,2.0,6.0,60,0.00,,,0.04,Wunderground v.1.15,2013-09-13 21:25:00,
2013-09-13 17:35:00,70.8,57.6,29.60,NW,308,2.0,2.0,63,0.00,,,0.04,Wunderground v.1.15,2013-09-13 21:35:00,
2013-09-13 17:40:00,70.6,57.8,29.60,NNW,329,1.0,2.0,64,0.00,,,0.04,Wunderground v.1.15,2013-09-13 21:40:00,
2013-09-13 17:50:00,69.8,57.1,29.61,NNW,345,1.0,1.0,64,0.00,,,0.04,Wunderground v.1.15,2013-09-13 21:50:00,
2013-09-13 17:55:00,69.4,57.1,29.61,NNW,339,1.0,1.0,65,0.00,,,0.04,Wunderground v.1.15,2013-09-13 21:55:00,
2013-09-13 18:05:00,68.9,57.1,29.62,NNW,348,1.0,1.0,66,0.00,,,0.04,Wunderground v.1.15,2013-09-13 22:05:00,
2013-09-13 18:10:00,68.8,57.0,29.62,NW,313,0.0,0.0,66,0.00,,,0.04,Wunderground v.1.15,2013-09-13 22:10:00,
2013-09-13 18:15:00,68.6,56.8,29.62,NNW,328,0.0,1.0,66,0.00,,,0.04,Wunderground v.1.15,2013-09-13 22:15:00,
2013-09-13 18:25:00,68.4,57.0,29.63,North,349,0.0,2.0,67,0.00,,,0.04,Wunderground v.1.15,2013-09-13 22:25:00,
2013-09-13 18:35:00,67.8,56.9,29.64,North,360,0.0,0.0,68,0.00,,,0.04,Wunderground v.1.15,2013-09-13 22:35:00,
2013-09-13 18:40:00,67.6,56.7,29.64,NNW,329,0.0,0.0,68,0.00,,,0.04,Wunderground v.1.15,2013-09-13 22:40:00,
2013-09-13 18:50:00,67.1,55.8,29.65,NNW,330,0.0,2.0,67,0.00,,,0.04,Wunderground v.1.15,2013-09-13 22:50:00,
2013-09-13 18:55:00,66.9,56.0,29.65,NNE,23,1.0,2.0,68,0.00,,,0.04,Wunderground v.1.15,2013-09-13 22:55:00,
2013-09-13 19:00:00,66.8,55.9,29.65,NNW,340,1.0,1.0,68,0.00,,,0.04,Wunderground v.1.15,2013-09-13 23:00:00,
2013-09-13 19:05:00,66.6,55.7,29.65,NW,313,0.0,1.0,68,0.00,,,0.04,Wunderground v.1.15,2013-09-13 23:05:00,
2013-09-13 19:10:00,66.4,55.9,29.65,North,349,0.0,0.0,69,0.00,,,0.04,Wunderground v.1.15,2013-09-13 23:10:00,
2013-09-13 19:20:00,66.1,55.6,29.66,NW,324,0.0,0.0,69,0.00,,,0.04,Wunderground v.1.15,2013-09-13 23:20:00,
2013-09-13 19:30:00,65.8,55.7,29.66,WSW,257,0.0,0.0,70,0.00,,,0.04,Wunderground v.1.15,2013-09-13 23:30:00,
2013-09-13 19:40:00,65.3,56.0,29.68,WNW,294,0.0,1.0,72,0.00,,,0.04,Wunderground v.1.15,2013-09-13 23:40:00,
2013-09-13 19:45:00,65.0,55.8,29.68,NNW,328,0.0,1.0,72,0.00,,,0.04,Wunderground v.1.15,2013-09-13 23:45:00,
2013-09-13 19:50:00,64.7,55.1,29.68,NNW,343,0.0,0.0,71,0.00,,,0.04,Wunderground v.1.15,2013-09-13 23:50:00,
2013-09-13 20:00:00,64.3,54.7,29.68,NNW,348,0.0,1.0,71,0.00,,,0.04,Wunderground v.1.15,2013-09-14 00:00:00,
2013-09-13 20:05:00,64.2,54.6,29.69,NNE,17,1.0,1.0,71,0.00,,,0.04,Wunderground v.1.15,2013-09-14 00:05:00,
2013-09-13 20:10:00,64.0,54.4,29.69,NW,325,1.0,1.0,71,0.00,,,0.04,Wunderground v.1.15,2013-09-14 00:10:00,
2013-09-13 20:15:00,63.9,54.3,29.69,North,10,1.0,1.0,71,0.00,,,0.04,Wunderground v.1.15,2013-09-14 00:15:00,
2013-09-13 20:20:00,63.9,54.7,29.70,North,10,1.0,1.0,72,0.00,,,0.04,Wunderground v.1.15,2013-09-14 00:20:00,
2013-09-13 20:25:00,63.7,54.5,29.70,North,10,0.0,1.0,72,0.00,,,0.04,Wunderground v.1.15,2013-09-14 00:25:00,
2013-09-13 20:35:00,63.4,54.6,29.71,West,279,0.0,0.0,73,0.00,,,0.04,Wunderground v.1.15,2013-09-14 00:35:00,
2013-09-13 20:40:00,63.1,54.7,29.71,West,279,0.0,0.0,74,0.00,,,0.04,Wunderground v.1.15,2013-09-14 00:40:00,
2013-09-13 20:45:00,62.9,54.9,29.71,NNW,329,0.0,0.0,75,0.00,,,0.04,Wunderground v.1.15,2013-09-14 00:45:00,
2013-09-13 20:50:00,62.7,55.0,29.71,North,360,0.0,0.0,76,0.00,,,0.04,Wunderground v.1.15,2013-09-14 00:50:00,
2013-09-13 20:55:00,62.6,55.3,29.71,NW,325,1.0,1.0,77,0.00,,,0.04,Wunderground v.1.15,2013-09-14 00:55:00,
2013-09-13 21:00:00,62.3,55.0,29.71,WSW,253,1.0,2.0,77,0.00,,,0.04,Wunderground v.1.15,2013-09-14 01:00:00,
2013-09-13 21:10:00,61.8,54.5,29.72,North,360,1.0,1.0,77,0.00,,,0.04,Wunderground v.1.15,2013-09-14 01:10:00,
2013-09-13 21:15:00,61.5,54.2,29.72,North,5,1.0,1.0,77,0.00,,,0.04,Wunderground v.1.15,2013-09-14 01:15:00,
2013-09-13 21:20:00,61.2,53.9,29.73,NNW,342,1.0,1.0,77,0.00,,,0.04,Wunderground v.1.15,2013-09-14 01:20:00,
2013-09-13 21:25:00,61.0,53.7,29.73,North,360,1.0,1.0,77,0.00,,,0.04,Wunderground v.1.15,2013-09-14 01:25:00,
2013-09-13 21:30:00,60.9,53.6,29.73,WNW,292,0.0,0.0,77,0.00,,,0.04,Wunderground v.1.15,2013-09-14 01:30:00,
2013-09-13 21:40:00,60.5,53.3,29.73,North,349,1.0,1.0,77,0.00,,,0.04,Wunderground v.1.15,2013-09-14 01:40:00,
2013-09-13 21:45:00,60.2,53.0,29.73,North,355,1.0,1.0,77,0.00,,,0.04,Wunderground v.1.15,2013-09-14 01:45:00,
2013-09-13 21:50:00,60.1,52.9,29.73,North,360,1.0,1.0,77,0.00,,,0.04,Wunderground v.1.15,2013-09-14 01:50:00,
2013-09-13 21:55:00,59.9,53.0,29.73,North,355,1.0,1.0,78,0.00,,,0.04,Wunderground v.1.15,2013-09-14 01:55:00,
2013-09-13 22:00:00,59.8,52.9,29.73,NNW,340,0.0,0.0,78,0.00,,,0.04,Wunderground v.1.15,2013-09-14 02:00:00,
2013-09-13 22:05:00,59.8,52.9,29.74,NNW,340,0.0,0.0,78,0.00,,,0.04,Wunderground v.1.15,2013-09-14 02:05:00,
2013-09-13 22:10:00,59.6,52.7,29.74,NNW,340,0.0,0.0,78,0.00,,,0.04,Wunderground v.1.15,2013-09-14 02:10:00,
2013-09-13 22:15:00,59.5,53.0,29.74,NNW,340,0.0,0.0,79,0.00,,,0.04,Wunderground v.1.15,2013-09-14 02:15:00,
2013-09-13 22:25:00,59.3,52.8,29.74,NNW,340,0.0,0.0,79,0.00,,,0.04,Wunderground v.1.15,2013-09-14 02:25:00,
2013-09-13 22:30:00,59.2,52.7,29.74,NNW,340,0.0,0.0,79,0.00,,,0.04,Wunderground v.1.15,2013-09-14 02:30:00,
2013-09-13 22:35:00,59.0,52.8,29.74,NNW,340,0.0,0.0,80,0.00,,,0.04,Wunderground v.1.15,2013-09-14 02:35:00,
2013-09-13 22:45:00,58.9,53.1,29.74,NNW,340,0.0,0.0,81,0.00,,,0.04,Wunderground v.1.15,2013-09-14 02:45:00,
2013-09-13 22:55:00,58.9,53.1,29.75,NNW,340,0.0,0.0,81,0.00,,,0.04,Wunderground v.1.15,2013-09-14 02:55:00,
2013-09-13 23:00:00,59.0,52.8,29.75,NNW,340,0.0,0.0,80,0.00,,,0.04,Wunderground v.1.15,2013-09-14 03:00:00,
2013-09-13 23:10:00,59.3,53.1,29.75,NW,325,1.0,1.0,80,0.00,,,0.04,Wunderground v.1.15,2013-09-14 03:10:00,
2013-09-13 23:20:00,59.5,53.0,29.75,NW,308,0.0,0.0,79,0.00,,,0.04,Wunderground v.1.15,2013-09-14 03:20:00,
2013-09-13 23:25:00,59.5,53.0,29.75,NW,309,0.0,0.0,79,0.00,,,0.04,Wunderground v.1.15,2013-09-14 03:25:00,
2013-09-13 23:30:00,59.5,53.0,29.75,North,351,0.0,1.0,79,0.00,,,0.04,Wunderground v.1.15,2013-09-14 03:30:00,
2013-09-13 23:35:00,59.6,53.1,29.75,NNW,343,0.0,3.0,79,0.00,,,0.04,Wunderground v.1.15,2013-09-14 03:35:00,
2013-09-13 23:45:00,59.6,52.7,29.75,NNW,333,0.0,0.0,78,0.00,,,0.04,Wunderground v.1.15,2013-09-14 03:45:00,
2013-09-13 23:50:00,59.8,52.6,29.76,NNW,340,0.0,0.0,77,0.00,,,0.04,Wunderground v.1.15,2013-09-14 03:50:00,
2013-09-13 23:55:00,59.8,52.6,29.76,North,355,0.0,0.0,77,0.00,,,0.04,Wunderground v.1.15,2013-09-14 03:55:00,